createdAt,value
2017-10-18T00:01:00.307Z,25.07
2017-10-18T00:03:28.680Z,26.30
2017-10-18T00:05:56.241Z,26.10
2017-10-18T00:08:23.835Z,20.97
2017-10-18T00:10:51.411Z,24.83
2017-10-18T00:13:18.976Z,20.50
2017-10-18T00:15:46.584Z,25.27
2017-10-18T00:18:14.168Z,37.53
2017-10-18T00:20:41.760Z,27.20
2017-10-18T00:23:09.328Z,29.30
2017-10-18T00:25:36.939Z,23.00
2017-10-18T00:28:05.275Z,20.77
2017-10-18T00:30:32.931Z,22.73
2017-10-18T00:33:00.588Z,24.63
2017-10-18T00:35:28.330Z,22.77
2017-10-18T00:37:55.917Z,21.63
2017-10-18T00:40:23.547Z,19.00
2017-10-18T00:42:51.159Z,21.93
2017-10-18T00:45:18.776Z,19.10
2017-10-18T00:47:46.371Z,23.53
2017-10-18T00:50:13.940Z,21.30
2017-10-18T00:52:42.307Z,24.30
2017-10-18T00:55:10.663Z,23.67
2017-10-18T00:57:38.230Z,20.00
2017-10-18T01:00:05.835Z,28.57
2017-10-18T01:02:33.610Z,23.00
2017-10-18T01:05:01.203Z,31.50
2017-10-18T01:07:28.975Z,29.33
2017-10-18T01:09:56.575Z,24.30
2017-10-18T01:12:24.139Z,19.13
2017-10-18T01:14:51.737Z,24.00
2017-10-18T01:17:19.328Z,22.63
2017-10-18T01:19:47.676Z,24.77
2017-10-18T01:22:15.269Z,25.03
2017-10-18T01:24:43.591Z,28.97
2017-10-18T01:27:11.191Z,21.37
2017-10-18T01:29:38.772Z,22.87
2017-10-18T01:32:06.343Z,21.10
2017-10-18T01:34:33.944Z,31.53
2017-10-18T01:37:01.543Z,21.67
2017-10-18T01:39:29.876Z,22.30
2017-10-18T01:41:57.540Z,28.93
2017-10-18T01:44:25.111Z,22.17
2017-10-18T01:46:52.699Z,27.20
2017-10-18T01:49:21.057Z,25.47
2017-10-18T01:51:48.624Z,22.77
2017-10-18T01:54:17.016Z,29.63
2017-10-18T01:56:45.352Z,22.40
2017-10-18T01:59:12.959Z,24.67
2017-10-18T02:01:40.547Z,19.17
2017-10-18T02:04:08.311Z,28.50
2017-10-18T02:06:35.887Z,25.53
2017-10-18T02:09:03.513Z,26.10
2017-10-18T02:11:31.101Z,24.33
2017-10-18T02:13:58.711Z,21.90
2017-10-18T02:16:26.298Z,19.77
2017-10-18T02:18:53.876Z,19.30
2017-10-18T02:21:21.483Z,28.33
2017-10-18T02:23:49.811Z,24.23
2017-10-18T02:26:17.554Z,21.73
2017-10-18T02:28:45.129Z,18.67
2017-10-18T02:31:12.756Z,21.40
2017-10-18T02:33:40.448Z,22.00
2017-10-18T02:36:08.044Z,17.60
2017-10-18T02:38:35.748Z,22.83
2017-10-18T02:41:03.338Z,18.30
2017-10-18T02:43:30.933Z,16.93
2017-10-18T02:45:59.358Z,22.17
2017-10-18T02:48:26.949Z,19.03
2017-10-18T02:50:54.515Z,19.40
2017-10-18T02:53:22.102Z,20.10
2017-10-18T02:55:49.711Z,18.30
2017-10-18T02:58:17.279Z,17.80
2017-10-18T03:00:44.876Z,18.80
2017-10-18T03:03:12.448Z,21.70
2017-10-18T03:05:40.044Z,19.40
2017-10-18T03:08:07.624Z,25.60
2017-10-18T03:10:36.091Z,26.10
2017-10-18T03:13:03.677Z,25.73
2017-10-18T03:15:32.014Z,22.00
2017-10-18T03:17:59.619Z,25.63
2017-10-18T03:20:27.943Z,24.37
2017-10-18T03:22:55.539Z,21.03
2017-10-18T03:25:23.883Z,20.70
2017-10-18T03:27:51.479Z,19.33
2017-10-18T03:30:19.823Z,22.03
2017-10-18T03:32:47.403Z,21.03
2017-10-18T03:35:15.005Z,18.20
2017-10-18T03:37:42.578Z,20.93
2017-10-18T03:40:10.171Z,20.47
2017-10-18T03:42:37.744Z,23.20
2017-10-18T03:45:05.340Z,18.23
2017-10-18T03:47:32.915Z,21.07
2017-10-18T03:50:00.515Z,19.87
2017-10-18T03:52:28.189Z,15.57
2017-10-18T03:54:56.614Z,18.57
2017-10-18T03:57:24.251Z,21.03
2017-10-18T03:59:51.808Z,18.30
2017-10-18T04:02:19.395Z,16.27
2017-10-18T04:04:47.106Z,23.73
2017-10-18T04:07:15.491Z,20.50
2017-10-18T04:09:43.844Z,23.13
2017-10-18T04:12:11.406Z,21.23
2017-10-18T04:14:39.008Z,23.20
2017-10-18T04:17:06.580Z,18.43
2017-10-18T04:19:34.144Z,18.60
2017-10-18T04:22:01.733Z,24.80
2017-10-18T04:24:29.304Z,21.73
2017-10-18T04:26:57.666Z,20.30
2017-10-18T04:29:25.227Z,25.17
2017-10-18T04:31:52.820Z,20.83
2017-10-18T04:34:20.387Z,21.10
2017-10-18T04:36:47.994Z,23.07
2017-10-18T04:39:15.589Z,20.90
2017-10-18T04:41:43.956Z,20.27
2017-10-18T04:44:12.293Z,17.30
2017-10-18T04:46:39.875Z,27.67
2017-10-18T04:49:07.471Z,23.33
2017-10-18T04:51:35.038Z,54.57
2017-10-18T04:54:02.716Z,20.03
2017-10-18T04:56:30.293Z,22.57
2017-10-18T04:58:57.896Z,27.97
2017-10-18T05:01:26.233Z,32.17
2017-10-18T05:03:53.795Z,26.20
2017-10-18T05:06:21.397Z,26.17
2017-10-18T05:08:49.730Z,25.13
2017-10-18T05:11:17.327Z,20.57
2017-10-18T05:13:45.663Z,22.30
2017-10-18T05:16:13.228Z,47.30
2017-10-18T05:18:40.823Z,31.20
2017-10-18T05:21:09.155Z,24.00
2017-10-18T05:23:36.763Z,23.30
2017-10-18T05:26:04.388Z,20.13
2017-10-18T05:28:31.979Z,20.30
2017-10-18T05:31:00.307Z,23.03
2017-10-18T05:33:27.911Z,46.17
2017-10-18T05:35:55.476Z,38.20
2017-10-18T05:38:23.983Z,20.03
2017-10-18T05:40:51.551Z,27.73
2017-10-18T05:43:19.124Z,30.20
2017-10-18T05:45:46.783Z,29.93
2017-10-18T05:48:14.363Z,21.83
2017-10-18T05:50:41.963Z,24.10
2017-10-18T05:53:09.536Z,24.73
2017-10-18T05:55:37.135Z,25.80
2017-10-18T05:58:04.708Z,21.27
2017-10-18T06:00:33.091Z,22.93
2017-10-18T06:03:01.451Z,25.43
2017-10-18T06:05:29.060Z,27.07
2017-10-18T06:07:56.673Z,21.47
2017-10-18T06:10:25.041Z,29.87
2017-10-18T06:12:52.612Z,27.73
2017-10-18T06:15:20.182Z,24.20
2017-10-18T06:17:48.600Z,24.43
2017-10-18T06:20:16.159Z,21.70
2017-10-18T06:22:43.747Z,20.60
2017-10-18T06:25:11.317Z,21.10
2017-10-18T06:27:38.931Z,30.20
2017-10-18T06:30:06.511Z,22.77
2017-10-18T06:32:34.252Z,20.17
2017-10-18T06:35:01.815Z,21.40
2017-10-18T06:37:29.415Z,28.50
2017-10-18T06:39:56.975Z,22.40
2017-10-18T06:42:24.547Z,22.27
2017-10-18T06:44:53.071Z,25.90
2017-10-18T06:47:20.649Z,26.40
2017-10-18T06:49:48.241Z,20.30
2017-10-18T06:52:16.686Z,27.60
2017-10-18T06:54:44.266Z,23.43
2017-10-18T06:57:11.876Z,25.13
2017-10-18T06:59:39.468Z,18.63
2017-10-18T07:02:07.112Z,19.27
2017-10-18T07:04:34.756Z,22.13
2017-10-18T07:07:02.332Z,20.87
2017-10-18T07:09:29.895Z,22.00
2017-10-18T07:11:57.612Z,20.13
2017-10-18T07:14:25.956Z,23.70
2017-10-18T07:16:53.560Z,18.87
2017-10-18T07:19:21.184Z,22.33
2017-10-18T07:21:49.540Z,20.27
2017-10-18T07:24:17.121Z,25.40
2017-10-18T07:26:44.703Z,26.43
2017-10-18T07:29:12.307Z,26.10
2017-10-18T07:31:39.892Z,18.77
2017-10-18T07:34:07.544Z,24.43
2017-10-18T07:36:35.127Z,16.10
2017-10-18T07:39:03.641Z,24.90
2017-10-18T07:41:31.239Z,24.67
2017-10-18T07:43:58.822Z,16.40
2017-10-18T07:46:26.419Z,24.33
2017-10-18T07:48:54.002Z,24.20
2017-10-18T07:51:21.595Z,17.87
2017-10-18T07:53:49.173Z,23.13
2017-10-18T07:56:17.533Z,17.33
2017-10-18T07:58:45.233Z,20.53
2017-10-18T08:01:12.795Z,16.70
2017-10-18T08:03:40.402Z,16.20
2017-10-18T08:06:08.756Z,15.77
2017-10-18T08:08:36.364Z,15.80
2017-10-18T08:11:04.704Z,17.57
2017-10-18T08:13:32.267Z,24.13
2017-10-18T08:15:59.855Z,20.93
2017-10-18T08:18:28.238Z,19.17
2017-10-18T08:20:56.607Z,17.23
2017-10-18T08:23:24.966Z,18.97
2017-10-18T08:25:52.549Z,18.93
2017-10-18T08:28:20.890Z,29.13
2017-10-18T08:30:48.475Z,23.33
2017-10-18T08:33:16.856Z,19.23
2017-10-18T08:35:45.294Z,54.77
2017-10-18T08:38:12.892Z,19.23
2017-10-18T08:40:41.227Z,22.53
2017-10-18T08:43:08.805Z,19.43
2017-10-18T08:45:37.909Z,20.80
2017-10-18T08:48:05.478Z,14.50
2017-10-18T08:50:33.838Z,22.23
2017-10-18T08:53:01.407Z,17.83
2017-10-18T08:55:29.821Z,16.77
2017-10-18T08:57:57.439Z,15.73
2017-10-18T09:00:25.015Z,18.87
2017-10-18T09:02:53.387Z,18.53
2017-10-18T09:05:21.724Z,18.67
2017-10-18T09:07:49.320Z,26.57
2017-10-18T09:10:17.663Z,18.33
2017-10-18T09:12:45.263Z,48.60
2017-10-18T09:15:13.613Z,35.83
2017-10-18T09:17:41.199Z,29.57
2017-10-18T09:20:09.531Z,16.73
2017-10-18T09:22:37.110Z,15.77
2017-10-18T09:25:04.700Z,16.40
2017-10-18T09:27:32.300Z,15.63
2017-10-18T09:29:59.891Z,16.93
2017-10-18T09:32:28.233Z,22.77
2017-10-18T09:34:55.937Z,17.70
2017-10-18T09:37:24.280Z,14.67
2017-10-18T09:39:51.875Z,22.27
2017-10-18T09:42:20.244Z,14.83
2017-10-18T09:44:47.867Z,14.20
2017-10-18T09:47:15.466Z,17.77
2017-10-18T09:49:43.848Z,14.20
2017-10-18T09:52:12.404Z,21.67
2017-10-18T09:54:40.002Z,13.57
2017-10-18T09:57:07.598Z,23.63
2017-10-18T09:59:35.187Z,16.87
2017-10-18T10:02:02.792Z,19.20
2017-10-18T10:04:30.382Z,20.73
2017-10-18T10:06:57.982Z,20.77
2017-10-18T10:09:26.319Z,22.23
2017-10-18T10:11:54.053Z,14.43
2017-10-18T10:14:21.660Z,15.90
2017-10-18T10:16:49.396Z,15.67
2017-10-18T10:19:16.999Z,17.60
2017-10-18T10:21:45.415Z,16.90
2017-10-18T10:24:13.032Z,20.93
2017-10-18T10:26:40.659Z,19.73
2017-10-18T10:29:08.267Z,15.17
2017-10-18T10:31:36.622Z,19.30
2017-10-18T10:34:04.236Z,15.00
2017-10-18T10:36:31.807Z,12.60
2017-10-18T10:38:59.382Z,20.93
2017-10-18T10:41:26.980Z,20.90
2017-10-18T10:43:55.317Z,10.10
2017-10-18T10:46:22.913Z,15.33
2017-10-18T10:48:50.503Z,13.10
2017-10-18T10:51:18.087Z,13.30
2017-10-18T10:53:45.664Z,14.07
2017-10-18T10:56:13.335Z,15.23
2017-10-18T10:58:41.664Z,12.13
2017-10-18T11:01:09.255Z,17.73
2017-10-18T11:03:36.853Z,23.17
2017-10-18T11:06:04.464Z,14.63
2017-10-18T11:08:32.054Z,13.00
2017-10-18T11:11:00.388Z,13.70
2017-10-18T11:13:27.983Z,16.53
2017-10-18T11:15:56.355Z,8.80
2017-10-18T11:18:23.927Z,16.43
2017-10-18T11:20:52.257Z,12.63
2017-10-18T11:23:19.849Z,16.13
2017-10-18T11:25:48.180Z,11.97
2017-10-18T11:28:15.991Z,12.13
2017-10-18T11:30:44.331Z,11.43
2017-10-18T11:33:11.915Z,15.83
2017-10-18T11:35:39.487Z,15.93
2017-10-18T11:38:07.852Z,8.80
2017-10-18T11:40:35.447Z,10.60
2017-10-18T11:43:03.025Z,14.47
2017-10-18T11:45:30.628Z,11.07
2017-10-18T11:47:58.201Z,17.90
2017-10-18T11:50:26.565Z,16.43
2017-10-18T11:52:55.636Z,8.00
2017-10-18T11:55:23.235Z,9.33
2017-10-18T11:57:51.583Z,9.10
2017-10-18T12:00:19.178Z,11.10
2017-10-18T12:02:47.628Z,13.63
2017-10-18T12:05:15.183Z,8.70
2017-10-18T12:07:42.782Z,7.10
2017-10-18T12:10:10.365Z,9.23
2017-10-18T12:12:37.966Z,11.10
2017-10-18T12:15:07.107Z,8.70
2017-10-18T12:17:34.726Z,7.80
2017-10-18T12:20:02.328Z,8.83
2017-10-18T12:22:30.003Z,16.63
2017-10-18T12:24:57.816Z,6.83
2017-10-18T12:27:26.155Z,5.93
2017-10-18T12:29:53.793Z,6.97
2017-10-18T12:32:21.471Z,14.23
2017-10-18T12:34:49.063Z,11.47
2017-10-18T12:37:16.623Z,5.33
2017-10-18T12:39:44.202Z,6.37
2017-10-18T12:42:12.701Z,8.20
2017-10-18T12:44:40.267Z,62.97
2017-10-18T12:47:07.860Z,74.27
2017-10-18T12:49:35.438Z,58.67
2017-10-18T12:52:03.112Z,62.10
2017-10-18T12:54:31.448Z,9.63
2017-10-18T12:56:59.043Z,63.53
2017-10-18T12:59:27.412Z,65.93
2017-10-18T13:01:54.979Z,8.83
2017-10-18T13:04:23.330Z,7.37
2017-10-18T13:06:50.883Z,6.80
2017-10-18T13:09:18.479Z,6.40
2017-10-18T13:11:46.813Z,30.53
2017-10-18T13:14:14.382Z,15.70
2017-10-18T13:16:41.968Z,47.10
2017-10-18T13:19:10.300Z,9.73
2017-10-18T13:21:37.894Z,15.90
2017-10-18T13:24:06.311Z,18.00
2017-10-18T13:26:34.179Z,52.57
2017-10-18T13:29:02.007Z,66.20
2017-10-18T13:31:30.420Z,16.43
2017-10-18T13:33:58.021Z,14.00
2017-10-18T13:36:25.640Z,10.07
2017-10-18T13:38:53.244Z,9.20
2017-10-18T13:41:20.822Z,7.10
2017-10-18T13:43:49.180Z,12.50
2017-10-18T13:46:16.736Z,7.10
2017-10-18T13:48:44.335Z,9.80
2017-10-18T13:51:12.015Z,9.60
2017-10-18T13:53:39.583Z,10.83
2017-10-18T13:56:07.279Z,6.77
2017-10-18T13:58:34.850Z,7.70
2017-10-18T14:01:03.218Z,16.20
2017-10-18T14:03:30.784Z,15.40
2017-10-18T14:05:58.434Z,84.87
2017-10-18T14:08:26.762Z,16.33
2017-10-18T14:10:54.359Z,7.83
2017-10-18T14:13:21.983Z,7.20
2017-10-18T14:15:49.576Z,9.33
2017-10-18T14:18:17.199Z,6.20
2017-10-18T14:20:44.799Z,151.70
2017-10-18T14:23:12.419Z,79.60
2017-10-18T14:25:39.999Z,11.67
2017-10-18T14:28:07.576Z,10.23
2017-10-18T14:30:35.131Z,16.43
2017-10-18T14:33:02.723Z,7.27
2017-10-18T14:35:31.134Z,8.43
2017-10-18T14:37:58.717Z,8.20
2017-10-18T14:40:26.315Z,6.43
2017-10-18T14:42:54.651Z,9.80
2017-10-18T14:45:22.241Z,8.73
2017-10-18T14:47:50.566Z,9.47
2017-10-18T14:50:18.139Z,10.30
2017-10-18T14:52:45.728Z,7.90
2017-10-18T14:55:14.209Z,7.77
2017-10-18T14:57:41.876Z,10.70
2017-10-18T15:00:10.236Z,8.43
2017-10-18T15:02:37.819Z,6.53
2017-10-18T15:05:06.696Z,9.17
2017-10-18T15:07:35.106Z,7.33
2017-10-18T15:10:02.664Z,6.30
2017-10-18T15:12:30.393Z,6.23
2017-10-18T15:14:58.727Z,8.03
2017-10-18T15:17:26.303Z,12.43
2017-10-18T15:19:53.896Z,6.80
2017-10-18T15:22:22.269Z,10.40
2017-10-18T15:24:50.644Z,7.20
2017-10-18T15:27:18.223Z,9.50
2017-10-18T15:29:46.560Z,15.30
2017-10-18T15:32:14.132Z,12.13
2017-10-18T15:34:41.735Z,6.70
2017-10-18T15:37:09.335Z,10.40
2017-10-18T15:39:36.892Z,7.43
2017-10-18T15:42:04.478Z,7.50
2017-10-18T15:44:32.807Z,14.03
2017-10-18T15:47:00.400Z,10.07
2017-10-18T15:49:28.004Z,12.27
2017-10-18T15:51:55.592Z,12.37
2017-10-18T15:54:23.167Z,8.40
2017-10-18T15:56:51.530Z,10.63
2017-10-18T15:59:19.107Z,9.47
2017-10-18T16:01:46.713Z,10.70
2017-10-18T16:04:14.286Z,34.93
2017-10-18T16:06:41.898Z,405.23
2017-10-18T16:09:10.256Z,487.37
2017-10-18T16:11:37.831Z,260.23
2017-10-18T16:14:06.200Z,360.53
2017-10-18T16:16:33.823Z,80.97
2017-10-18T16:19:01.427Z,117.60
2017-10-18T16:21:29.773Z,19.00
2017-10-18T16:23:57.371Z,20.33
2017-10-18T16:26:25.701Z,13.63
2017-10-18T16:28:53.272Z,10.90
2017-10-18T16:31:20.886Z,11.50
2017-10-18T16:33:48.488Z,13.50
2017-10-18T16:36:16.155Z,13.77
2017-10-18T16:38:43.731Z,15.17
2017-10-18T16:41:11.392Z,17.07
2017-10-18T16:43:39.734Z,13.07
2017-10-18T16:46:07.334Z,20.37
2017-10-18T16:48:35.669Z,10.27
2017-10-18T16:51:03.364Z,13.37
2017-10-18T16:53:30.972Z,7.20
2017-10-18T16:55:58.544Z,13.97
2017-10-18T16:58:26.142Z,7.90
2017-10-18T17:00:54.478Z,8.43
2017-10-18T17:03:22.091Z,9.13
2017-10-18T17:05:50.418Z,8.30
2017-10-18T17:08:18.011Z,10.13
2017-10-18T17:10:46.408Z,10.00
2017-10-18T17:13:13.992Z,11.13
2017-10-18T17:15:41.585Z,15.43
2017-10-18T17:18:09.165Z,9.27
2017-10-18T17:20:36.802Z,10.67
2017-10-18T17:23:04.412Z,13.37
2017-10-18T17:25:31.980Z,15.90
2017-10-18T17:27:59.583Z,15.27
2017-10-18T17:30:28.685Z,13.07
2017-10-18T17:32:56.299Z,9.43
2017-10-18T17:35:23.915Z,12.57
2017-10-18T17:37:52.241Z,14.33
2017-10-18T17:40:19.859Z,9.80
2017-10-18T17:42:48.199Z,14.53
2017-10-18T17:45:15.814Z,11.13
2017-10-18T17:47:43.410Z,8.70
2017-10-18T17:50:10.984Z,12.03
2017-10-18T17:52:39.349Z,8.73
2017-10-18T17:55:06.911Z,11.87
2017-10-18T17:57:34.535Z,12.63
2017-10-18T18:00:02.147Z,10.47
2017-10-18T18:02:29.748Z,11.70
2017-10-18T18:04:57.328Z,12.73
2017-10-18T18:07:24.969Z,12.73
2017-10-18T18:09:52.557Z,11.07
2017-10-18T18:12:20.160Z,10.30
2017-10-18T18:14:48.520Z,10.57
2017-10-18T18:17:16.120Z,11.93
2017-10-18T18:19:43.746Z,16.77
2017-10-18T18:22:11.463Z,25.27
2017-10-18T18:24:39.065Z,12.40
2017-10-18T18:27:06.722Z,9.97
2017-10-18T18:29:34.324Z,12.37
2017-10-18T18:32:02.059Z,11.30
2017-10-18T18:34:30.503Z,13.50
2017-10-18T18:36:58.121Z,14.23
2017-10-18T18:39:25.796Z,15.80
2017-10-18T18:41:53.485Z,14.33
2017-10-18T18:44:21.098Z,18.80
2017-10-18T18:46:48.761Z,14.83
2017-10-18T18:49:16.468Z,14.20
2017-10-18T18:51:44.148Z,14.87
2017-10-18T18:54:12.066Z,17.23
2017-10-18T18:56:39.671Z,20.13
2017-10-18T18:59:07.309Z,14.00
2017-10-18T19:01:34.929Z,11.40
2017-10-18T19:04:02.555Z,11.90
2017-10-18T19:06:30.228Z,15.63
2017-10-18T19:08:58.680Z,12.03
2017-10-18T19:11:26.512Z,20.67
2017-10-18T19:13:54.476Z,12.63
2017-10-18T19:16:22.548Z,17.90
2017-10-18T19:18:50.416Z,15.17
2017-10-18T19:21:18.133Z,15.83
2017-10-18T19:23:46.616Z,17.23
2017-10-18T19:26:14.977Z,18.97
2017-10-18T19:28:42.596Z,15.60
2017-10-18T19:31:10.208Z,24.13
2017-10-18T19:33:38.565Z,19.90
2017-10-18T19:36:07.780Z,20.47
2017-10-18T19:38:36.125Z,17.77
2017-10-18T19:41:03.721Z,20.10
2017-10-18T19:43:32.075Z,21.60
2017-10-18T19:45:59.666Z,21.20
2017-10-18T19:48:28.047Z,17.97
2017-10-18T19:50:55.664Z,19.27
2017-10-18T19:53:23.252Z,21.50
2017-10-18T19:55:51.638Z,16.53
2017-10-18T19:58:19.265Z,19.33
2017-10-18T20:00:46.929Z,21.77
2017-10-18T20:03:15.312Z,18.40
2017-10-18T20:05:42.927Z,17.77
2017-10-18T20:08:10.541Z,18.07
2017-10-18T20:10:38.917Z,21.60
2017-10-18T20:13:07.264Z,19.07
2017-10-18T20:15:34.864Z,16.43
2017-10-18T20:18:03.208Z,18.07
2017-10-18T20:20:31.561Z,17.63
2017-10-18T20:22:59.156Z,21.00
2017-10-18T20:25:26.726Z,26.03
2017-10-18T20:27:55.143Z,21.10
2017-10-18T20:30:22.758Z,20.23
2017-10-18T20:32:51.209Z,18.77
2017-10-18T20:35:18.839Z,28.40
2017-10-18T20:37:46.428Z,19.77
2017-10-18T20:40:14.027Z,21.60
2017-10-18T20:42:42.372Z,20.57
2017-10-18T20:45:10.222Z,21.57
2017-10-18T20:47:37.820Z,15.33
2017-10-18T20:50:06.207Z,19.10
2017-10-18T20:52:34.546Z,33.73
2017-10-18T20:55:02.116Z,17.83
2017-10-18T20:57:29.756Z,28.53
2017-10-18T20:59:57.327Z,20.77
2017-10-18T21:02:26.439Z,20.40
2017-10-18T21:04:54.818Z,18.70
2017-10-18T21:07:23.282Z,25.50
2017-10-18T21:09:50.882Z,21.00
2017-10-18T21:12:18.562Z,22.37
2017-10-18T21:14:46.271Z,19.60
2017-10-18T21:17:13.860Z,25.43
2017-10-18T21:19:41.532Z,16.93
2017-10-18T21:22:09.118Z,24.80
2017-10-18T21:24:36.712Z,30.47
2017-10-18T21:27:04.293Z,22.50
2017-10-18T21:29:31.884Z,25.80
2017-10-18T21:31:59.484Z,23.30
2017-10-18T21:34:27.947Z,27.03
2017-10-18T21:36:55.552Z,22.67
2017-10-18T21:39:23.255Z,27.73
2017-10-18T21:41:50.836Z,20.77
2017-10-18T21:44:18.441Z,27.83
2017-10-18T21:46:46.079Z,25.30
2017-10-18T21:49:14.451Z,27.03
2017-10-18T21:51:42.786Z,25.87
2017-10-18T21:54:10.392Z,25.97
2017-10-18T21:56:38.743Z,22.50
2017-10-18T21:59:06.352Z,20.73
2017-10-18T22:01:33.949Z,22.07
2017-10-18T22:04:01.548Z,23.17
2017-10-18T22:06:29.880Z,22.73
2017-10-18T22:08:57.492Z,22.50
2017-10-18T22:11:25.097Z,18.40
2017-10-18T22:13:52.780Z,22.90
2017-10-18T22:16:20.394Z,22.43
2017-10-18T22:18:47.984Z,20.80
2017-10-18T22:21:15.600Z,29.20
2017-10-18T22:23:43.174Z,27.43
2017-10-18T22:26:10.764Z,25.90
2017-10-18T22:36:18.780Z,22.23
2017-10-18T22:38:46.352Z,22.50
2017-10-18T22:41:13.944Z,18.53
2017-10-18T22:43:42.281Z,20.27
2017-10-18T22:46:09.891Z,23.30
2017-10-18T22:48:38.231Z,21.23
2017-10-18T22:51:05.799Z,23.30
2017-10-18T22:53:33.403Z,20.07
2017-10-18T22:56:00.987Z,18.97
2017-10-18T22:58:28.594Z,18.70
2017-10-18T23:00:56.180Z,16.93
2017-10-18T23:03:23.764Z,17.63
2017-10-18T23:05:51.364Z,24.33
2017-10-18T23:08:18.963Z,23.60
2017-10-18T23:10:46.536Z,21.80
2017-10-18T23:13:14.139Z,22.87
2017-10-18T23:15:41.725Z,17.13
2017-10-18T23:18:10.056Z,21.27
2017-10-18T23:20:37.695Z,19.43
2017-10-18T23:23:05.676Z,14.90
2017-10-18T23:25:33.247Z,22.47
2017-10-18T23:28:00.873Z,21.03
2017-10-18T23:30:28.503Z,17.97
2017-10-18T23:32:56.856Z,20.93
2017-10-18T23:35:24.429Z,17.60
2017-10-18T23:37:52.791Z,18.43
2017-10-18T23:40:21.143Z,17.10
2017-10-18T23:42:48.747Z,29.20
2017-10-18T23:45:17.083Z,16.70
2017-10-18T23:47:44.664Z,18.90
2017-10-18T23:50:13.027Z,19.70
2017-10-18T23:52:46.182Z,18.60
2017-10-18T23:55:13.771Z,20.13
2017-10-18T23:57:41.331Z,25.50
